Terminal Aerodrome Forecast
Issued by NWS

Home | Current Version | Previous Version | Text Only | Print | Product List | Glossary On
Versions: 1 2 3 4 5 6 7 8 9 10 11 12 13 14 15 16 17 18 19 20 21 22 23 24 25 26 27 28 29 30 31
000
FTUS41 KPHI 040206 AAA
TAFMIV
TAF AMD
KMIV 040206Z 0402/0424 VRB04KT 5SM -RA BR BKN004 OVC019
      WS020/21040KT
     FM040400 21006KT 4SM RA BR OVC005 WS015/23055KT
     FM040800 24006KT 3SM -RA BR OVC005 WS020/25045KT
     FM041200 29004KT 4SM -RA BR OVC007
      TEMPO 0412/0415 1SM BR OVC004
     FM042100 34004KT 3SM -RA BR OVC007=

USA.gov is the U.S. government's official web portal to all federal, state and local government web resources and services.